createdAt,value
2018-09-27T00:03:53.679Z,9.10
2018-09-27T00:08:56.847Z,9.10
2018-09-27T00:13:59.970Z,9.10
2018-09-27T00:19:03.117Z,9.10
2018-09-27T00:24:06.315Z,9.00
2018-09-27T00:29:09.435Z,9.00
2018-09-27T00:34:12.615Z,9.00
2018-09-27T00:39:15.732Z,8.90
2018-09-27T00:44:18.879Z,8.80
2018-09-27T00:49:21.998Z,8.70
2018-09-27T00:54:25.146Z,8.70
2018-09-27T00:59:28.366Z,8.70
2018-09-27T01:04:31.490Z,8.60
2018-09-27T01:09:34.600Z,8.60
2018-09-27T01:14:37.740Z,8.50
2018-09-27T01:19:40.842Z,8.50
2018-09-27T01:24:44.012Z,8.50
2018-09-27T01:29:47.119Z,8.50
2018-09-27T01:34:50.235Z,8.50
2018-09-27T01:39:53.549Z,8.50
2018-09-27T01:44:56.793Z,8.60
2018-09-27T01:49:59.985Z,8.60
2018-09-27T01:55:03.103Z,8.50
2018-09-27T02:00:06.256Z,8.50
2018-09-27T02:05:09.371Z,8.40
2018-09-27T02:10:12.561Z,8.30
2018-09-27T02:15:15.694Z,8.20
2018-09-27T02:20:18.867Z,8.20
2018-09-27T02:25:22.067Z,8.20
2018-09-27T02:30:25.186Z,8.10
2018-09-27T02:35:28.274Z,8.10
2018-09-27T02:40:31.395Z,8.10
2018-09-27T02:45:34.526Z,8.00
2018-09-27T02:50:37.661Z,8.00
2018-09-27T02:55:40.786Z,8.00
2018-09-27T03:00:43.958Z,8.00
2018-09-27T03:05:47.069Z,7.90
2018-09-27T03:10:50.186Z,7.90
2018-09-27T03:15:53.313Z,7.90
2018-09-27T03:20:56.514Z,7.90
2018-09-27T03:25:59.611Z,7.80
2018-09-27T03:31:02.721Z,7.80
2018-09-27T03:36:05.864Z,7.80
2018-09-27T03:41:08.965Z,7.70
2018-09-27T03:46:12.133Z,7.70
2018-09-27T03:51:15.256Z,7.70
2018-09-27T03:56:18.401Z,7.70
2018-09-27T04:01:21.587Z,7.70
2018-09-27T04:06:24.699Z,7.70
2018-09-27T04:11:27.898Z,7.60
2018-09-27T04:16:30.995Z,7.60
2018-09-27T04:21:34.174Z,7.60
2018-09-27T04:26:37.307Z,7.60
2018-09-27T04:31:40.483Z,7.60
2018-09-27T04:36:43.623Z,7.50
2018-09-27T04:41:46.786Z,7.60
2018-09-27T04:46:49.959Z,7.60
2018-09-27T04:51:53.151Z,7.50
2018-09-27T04:56:56.222Z,7.50
2018-09-27T05:01:59.410Z,7.40
2018-09-27T05:07:02.470Z,7.30
2018-09-27T05:12:05.637Z,7.30
2018-09-27T05:17:08.830Z,7.20
2018-09-27T05:22:11.971Z,7.10
2018-09-27T05:27:15.084Z,7.10
2018-09-27T05:32:18.167Z,7.10
2018-09-27T05:37:21.286Z,7.10
2018-09-27T05:42:24.471Z,7.10
2018-09-27T05:47:27.598Z,7.20
2018-09-27T05:52:30.715Z,7.20
2018-09-27T05:57:33.919Z,7.30
2018-09-27T06:02:37.026Z,7.40
2018-09-27T06:07:40.155Z,7.50
2018-09-27T06:12:43.362Z,7.80
2018-09-27T06:17:46.508Z,8.90
2018-09-27T06:22:49.627Z,10.50
2018-09-27T06:27:52.722Z,12.30
2018-09-27T06:32:55.847Z,13.50
2018-09-27T06:37:58.948Z,14.10
2018-09-27T06:43:02.110Z,15.00
2018-09-27T06:48:05.265Z,15.30
2018-09-27T06:53:08.619Z,15.90
2018-09-27T06:58:11.742Z,16.10
2018-09-27T07:03:14.881Z,16.40
2018-09-27T07:08:18.050Z,16.80
2018-09-27T07:13:21.207Z,16.40
2018-09-27T07:18:24.356Z,17.30
2018-09-27T07:23:27.502Z,18.50
2018-09-27T07:28:30.599Z,19.60
2018-09-27T07:33:33.769Z,19.00
2018-09-27T07:38:36.967Z,19.10
2018-09-27T07:43:40.148Z,19.60
2018-09-27T07:48:43.248Z,19.50
2018-09-27T07:53:46.400Z,19.50
2018-09-27T07:58:49.547Z,19.50
2018-09-27T08:03:52.738Z,19.20
2018-09-27T08:08:55.931Z,18.70
2018-09-27T08:13:59.041Z,18.00
2018-09-27T08:19:02.208Z,17.10
2018-09-27T08:24:05.376Z,16.80
2018-09-27T08:29:08.558Z,16.10
2018-09-27T08:34:11.637Z,15.30
2018-09-27T08:39:14.829Z,14.90
2018-09-27T08:44:17.958Z,14.70
2018-09-27T08:49:21.085Z,14.60
2018-09-27T08:54:24.191Z,14.30
2018-09-27T08:59:27.387Z,14.20
2018-09-27T09:04:30.505Z,14.30
2018-09-27T09:09:33.660Z,14.40
2018-09-27T09:14:36.752Z,14.60
2018-09-27T09:19:39.921Z,14.60
2018-09-27T09:24:43.093Z,15.10
2018-09-27T09:29:46.147Z,15.40
2018-09-27T09:34:49.251Z,16.40
2018-09-27T09:39:52.396Z,17.80
2018-09-27T09:44:55.549Z,19.10
2018-09-27T09:49:58.796Z,20.80
2018-09-27T09:55:01.866Z,23.00
2018-09-27T10:00:05.059Z,24.60
2018-09-27T10:05:08.217Z,26.40
2018-09-27T10:10:11.394Z,28.40
2018-09-27T10:15:14.541Z,28.70
2018-09-27T10:20:17.669Z,29.30
2018-09-27T10:25:20.854Z,29.50
2018-09-27T10:30:23.994Z,30.30
2018-09-27T10:35:27.157Z,30.70
2018-09-27T10:40:30.302Z,30.10
2018-09-27T10:45:33.496Z,30.60
2018-09-27T10:50:36.639Z,30.80
2018-09-27T10:55:39.730Z,31.00
2018-09-27T11:00:42.857Z,29.30
2018-09-27T11:05:46.004Z,30.10
2018-09-27T11:10:49.146Z,31.80
2018-09-27T11:15:52.273Z,32.30
2018-09-27T11:20:55.419Z,31.80
2018-09-27T11:25:58.580Z,30.90
2018-09-27T11:31:19.462Z,31.60
2018-09-27T11:36:22.713Z,31.70
2018-09-27T11:41:25.786Z,32.40
2018-09-27T11:46:28.990Z,32.80
2018-09-27T11:51:32.111Z,31.70
2018-09-27T11:56:35.285Z,31.20
2018-09-27T12:01:38.530Z,31.10
2018-09-27T12:06:41.610Z,30.70
2018-09-27T12:11:44.693Z,31.50
2018-09-27T12:16:47.861Z,31.10
2018-09-27T12:21:51.146Z,31.00
2018-09-27T12:26:54.325Z,30.80
2018-09-27T12:31:57.498Z,30.30
2018-09-27T12:37:00.619Z,30.40
2018-09-27T12:42:03.934Z,29.90
2018-09-27T12:47:06.931Z,29.50
2018-09-27T12:52:10.279Z,30.00
2018-09-27T12:57:13.213Z,28.90
2018-09-27T13:02:16.401Z,28.70
2018-09-27T13:07:19.393Z,28.70
2018-09-27T13:12:22.578Z,28.30
2018-09-27T13:17:25.737Z,27.90
2018-09-27T13:22:28.811Z,27.20
2018-09-27T13:27:31.946Z,27.10
2018-09-27T13:32:35.221Z,26.30
2018-09-27T13:37:38.415Z,25.20
2018-09-27T13:42:41.568Z,24.20
2018-09-27T13:47:44.712Z,23.40
2018-09-27T13:52:47.839Z,22.90
2018-09-27T13:57:50.987Z,22.60
2018-09-27T14:02:54.152Z,22.40
2018-09-27T14:07:57.259Z,22.30
2018-09-27T14:13:00.391Z,22.40
2018-09-27T14:18:03.512Z,22.40
2018-09-27T14:23:06.686Z,22.50
2018-09-27T14:28:09.765Z,22.50
2018-09-27T14:33:12.896Z,22.60
2018-09-27T14:38:16.063Z,22.60
2018-09-27T14:43:19.238Z,22.60
2018-09-27T14:48:22.369Z,22.50
2018-09-27T14:53:26.452Z,22.50
2018-09-27T14:58:29.663Z,22.50
2018-09-27T15:03:32.714Z,22.50
2018-09-27T15:08:35.836Z,22.50
2018-09-27T15:13:39.012Z,22.50
2018-09-27T15:18:42.198Z,22.30
2018-09-27T15:23:45.305Z,22.50
2018-09-27T15:28:48.469Z,22.50
2018-09-27T15:33:51.658Z,22.50
2018-09-27T15:38:54.731Z,22.40
2018-09-27T15:43:57.907Z,22.30
2018-09-27T15:49:01.029Z,22.20
2018-09-27T15:54:04.209Z,22.00
2018-09-27T15:59:07.405Z,21.80
2018-09-27T16:04:10.566Z,21.70
2018-09-27T16:09:13.610Z,21.70
2018-09-27T16:14:16.734Z,21.60
2018-09-27T16:19:19.983Z,21.40
2018-09-27T16:24:23.051Z,21.30
2018-09-27T16:29:26.267Z,21.20
2018-09-27T16:34:29.479Z,21.00
2018-09-27T16:39:32.561Z,20.70
2018-09-27T16:44:35.674Z,20.50
2018-09-27T16:49:38.778Z,20.40
2018-09-27T16:54:42.003Z,20.20
2018-09-27T16:59:45.185Z,19.90
2018-09-27T17:04:48.281Z,19.60
2018-09-27T17:09:51.487Z,19.30
2018-09-27T17:14:54.613Z,19.00
2018-09-27T17:19:57.737Z,18.70
2018-09-27T17:25:00.895Z,18.40
2018-09-27T17:30:04.227Z,18.10
2018-09-27T17:35:07.489Z,17.90
2018-09-27T17:40:10.567Z,17.70
2018-09-27T17:45:13.708Z,17.50
2018-09-27T17:50:16.877Z,17.30
2018-09-27T17:55:20.025Z,17.10
2018-09-27T18:00:25.441Z,16.90
2018-09-27T18:05:29.144Z,16.70
2018-09-27T18:10:32.218Z,16.60
2018-09-27T18:15:35.309Z,16.40
2018-09-27T18:20:38.455Z,16.20
2018-09-27T18:25:41.770Z,16.10
2018-09-27T18:30:44.928Z,15.90
2018-09-27T18:35:48.059Z,15.80
2018-09-27T18:40:51.219Z,15.60
2018-09-27T18:45:54.347Z,15.50
2018-09-27T18:50:57.472Z,15.40
2018-09-27T18:56:00.618Z,15.30
2018-09-27T19:01:03.722Z,15.20
2018-09-27T19:06:06.889Z,15.10
2018-09-27T19:11:10.067Z,15.00
2018-09-27T19:16:13.255Z,14.90
2018-09-27T19:21:16.397Z,14.90
2018-09-27T19:26:19.624Z,14.80
2018-09-27T19:31:22.806Z,14.70
2018-09-27T19:36:26.077Z,14.70
2018-09-27T19:41:29.351Z,14.60
2018-09-27T19:46:32.561Z,14.60
2018-09-27T19:51:35.697Z,14.50
2018-09-27T19:56:38.844Z,14.40
2018-09-27T20:01:42.049Z,14.30
2018-09-27T20:06:45.227Z,14.30
2018-09-27T20:11:48.353Z,14.10
2018-09-27T20:16:51.521Z,14.10
2018-09-27T20:21:54.694Z,14.10
2018-09-27T20:26:57.844Z,14.00
2018-09-27T20:32:01.008Z,13.90
2018-09-27T20:37:04.398Z,13.90
2018-09-27T20:42:07.517Z,13.80
2018-09-27T20:47:10.825Z,13.60
2018-09-27T20:52:13.975Z,13.50
2018-09-27T20:57:17.109Z,13.30
2018-09-27T21:02:20.297Z,13.20
2018-09-27T21:07:23.473Z,13.10
2018-09-27T21:12:26.672Z,13.10
2018-09-27T21:17:29.855Z,13.00
2018-09-27T21:22:32.974Z,12.90
2018-09-27T21:27:36.143Z,12.90
2018-09-27T21:32:39.288Z,12.80
2018-09-27T21:37:42.447Z,12.70
2018-09-27T21:42:45.593Z,12.60
2018-09-27T21:47:48.763Z,12.50
2018-09-27T21:52:51.900Z,12.40
2018-09-27T21:57:55.099Z,12.40
2018-09-27T22:02:58.222Z,12.30
2018-09-27T22:08:01.392Z,12.30
2018-09-27T22:13:04.602Z,12.20
2018-09-27T22:18:07.805Z,12.20
2018-09-27T22:23:10.920Z,12.10
2018-09-27T22:28:14.042Z,12.00
2018-09-27T22:33:17.188Z,11.90
2018-09-27T22:38:20.351Z,11.90
2018-09-27T22:43:23.496Z,11.90
2018-09-27T22:48:26.630Z,11.80
2018-09-27T22:53:29.783Z,11.70
2018-09-27T22:58:32.944Z,11.70
2018-09-27T23:03:36.118Z,11.60
2018-09-27T23:08:39.284Z,11.50
2018-09-27T23:13:42.443Z,11.50
2018-09-27T23:18:45.605Z,11.50
2018-09-27T23:23:48.796Z,11.50
2018-09-27T23:28:51.968Z,11.50
2018-09-27T23:33:55.092Z,11.50
2018-09-27T23:38:58.235Z,11.40
2018-09-27T23:44:01.450Z,11.30
2018-09-27T23:49:04.607Z,11.30
2018-09-27T23:54:07.776Z,11.20
2018-09-27T23:59:10.956Z,11.20
